sensor_id;sensor_type;location;lat;lon;timestamp;P1;durP1;ratioP1;P2;durP2;ratioP2
75603;SDS011;64187;51.010;13.792;2024-01-30T00:00:10;28.83;;;12.70;;
75603;SDS011;64187;51.010;13.792;2024-01-30T00:05:09;21.35;;;11.45;;
75603;SDS011;64187;51.010;13.792;2024-01-30T00:10:08;26.85;;;12.68;;
75603;SDS011;64187;51.010;13.792;2024-01-30T00:15:07;25.63;;;11.57;;
75603;SDS011;64187;51.010;13.792;2024-01-30T00:20:08;24.92;;;12.07;;
75603;SDS011;64187;51.010;13.792;2024-01-30T00:25:08;24.73;;;12.48;;
75603;SDS011;64187;51.010;13.792;2024-01-30T00:30:07;24.17;;;12.25;;
75603;SDS011;64187;51.010;13.792;2024-01-30T00:35:07;28.48;;;13.18;;
75603;SDS011;64187;51.010;13.792;2024-01-30T00:40:08;25.80;;;12.10;;
75603;SDS011;64187;51.010;13.792;2024-01-30T00:45:14;25.95;;;13.30;;
75603;SDS011;64187;51.010;13.792;2024-01-30T00:50:14;21.48;;;10.93;;
75603;SDS011;64187;51.010;13.792;2024-01-30T00:55:13;21.98;;;10.90;;
75603;SDS011;64187;51.010;13.792;2024-01-30T01:00:13;22.13;;;11.57;;
75603;SDS011;64187;51.010;13.792;2024-01-30T01:05:15;19.38;;;10.00;;
75603;SDS011;64187;51.010;13.792;2024-01-30T01:10:14;22.80;;;10.95;;
75603;SDS011;64187;51.010;13.792;2024-01-30T01:15:14;24.33;;;10.93;;
75603;SDS011;64187;51.010;13.792;2024-01-30T01:20:13;20.75;;;10.68;;
75603;SDS011;64187;51.010;13.792;2024-01-30T01:25:12;23.17;;;10.65;;
75603;SDS011;64187;51.010;13.792;2024-01-30T01:30:12;22.30;;;11.00;;
75603;SDS011;64187;51.010;13.792;2024-01-30T01:35:16;22.95;;;11.27;;
75603;SDS011;64187;51.010;13.792;2024-01-30T01:40:15;21.90;;;10.27;;
75603;SDS011;64187;51.010;13.792;2024-01-30T01:45:15;21.33;;;10.18;;
75603;SDS011;64187;51.010;13.792;2024-01-30T01:50:15;20.35;;;11.70;;
75603;SDS011;64187;51.010;13.792;2024-01-30T01:55:18;24.98;;;10.60;;
75603;SDS011;64187;51.010;13.792;2024-01-30T02:00:23;20.33;;;8.63;;
75603;SDS011;64187;51.010;13.792;2024-01-30T02:05:23;22.45;;;10.27;;
75603;SDS011;64187;51.010;13.792;2024-01-30T02:10:23;22.13;;;10.18;;
75603;SDS011;64187;51.010;13.792;2024-01-30T02:15:22;23.30;;;10.60;;
75603;SDS011;64187;51.010;13.792;2024-01-30T02:20:21;23.27;;;9.85;;
75603;SDS011;64187;51.010;13.792;2024-01-30T02:25:30;21.98;;;10.73;;
75603;SDS011;64187;51.010;13.792;2024-01-30T02:30:32;20.33;;;10.38;;
75603;SDS011;64187;51.010;13.792;2024-01-30T02:35:31;24.55;;;10.85;;
75603;SDS011;64187;51.010;13.792;2024-01-30T02:40:30;24.75;;;11.07;;
75603;SDS011;64187;51.010;13.792;2024-01-30T02:45:30;19.83;;;10.52;;
75603;SDS011;64187;51.010;13.792;2024-01-30T02:50:28;22.67;;;10.68;;
75603;SDS011;64187;51.010;13.792;2024-01-30T02:55:27;21.33;;;11.00;;
75603;SDS011;64187;51.010;13.792;2024-01-30T03:00:26;19.25;;;10.05;;
75603;SDS011;64187;51.010;13.792;2024-01-30T03:05:25;25.02;;;11.10;;
75603;SDS011;64187;51.010;13.792;2024-01-30T03:10:24;25.90;;;11.35;;
75603;SDS011;64187;51.010;13.792;2024-01-30T03:15:23;22.23;;;11.65;;
75603;SDS011;64187;51.010;13.792;2024-01-30T03:20:22;24.38;;;11.00;;
75603;SDS011;64187;51.010;13.792;2024-01-30T03:25:21;24.90;;;11.50;;
75603;SDS011;64187;51.010;13.792;2024-01-30T03:30:20;29.67;;;12.32;;
75603;SDS011;64187;51.010;13.792;2024-01-30T03:35:19;20.75;;;10.27;;
75603;SDS011;64187;51.010;13.792;2024-01-30T03:40:18;23.05;;;11.10;;
75603;SDS011;64187;51.010;13.792;2024-01-30T03:45:17;21.20;;;11.32;;
75603;SDS011;64187;51.010;13.792;2024-01-30T03:50:18;24.23;;;10.88;;
75603;SDS011;64187;51.010;13.792;2024-01-30T03:55:17;21.45;;;9.93;;
75603;SDS011;64187;51.010;13.792;2024-01-30T04:00:16;22.67;;;12.65;;
75603;SDS011;64187;51.010;13.792;2024-01-30T04:05:15;22.13;;;11.00;;
75603;SDS011;64187;51.010;13.792;2024-01-30T04:10:14;25.10;;;11.90;;
75603;SDS011;64187;51.010;13.792;2024-01-30T04:15:13;24.45;;;11.18;;
75603;SDS011;64187;51.010;13.792;2024-01-30T04:20:13;27.30;;;12.30;;
75603;SDS011;64187;51.010;13.792;2024-01-30T04:25:13;27.85;;;11.65;;
75603;SDS011;64187;51.010;13.792;2024-01-30T04:30:12;24.13;;;11.48;;
75603;SDS011;64187;51.010;13.792;2024-01-30T04:35:12;23.55;;;11.23;;
75603;SDS011;64187;51.010;13.792;2024-01-30T04:40:11;22.27;;;10.98;;
75603;SDS011;64187;51.010;13.792;2024-01-30T04:45:11;21.38;;;10.73;;
75603;SDS011;64187;51.010;13.792;2024-01-30T04:50:10;24.13;;;10.68;;
75603;SDS011;64187;51.010;13.792;2024-01-30T04:55:09;23.77;;;12.35;;
75603;SDS011;64187;51.010;13.792;2024-01-30T05:00:09;23.13;;;11.82;;
75603;SDS011;64187;51.010;13.792;2024-01-30T05:05:08;24.88;;;11.75;;
75603;SDS011;64187;51.010;13.792;2024-01-30T05:10:07;27.38;;;12.40;;
75603;SDS011;64187;51.010;13.792;2024-01-30T05:15:07;25.40;;;10.68;;
75603;SDS011;64187;51.010;13.792;2024-01-30T05:20:06;21.95;;;10.77;;
75603;SDS011;64187;51.010;13.792;2024-01-30T05:25:06;20.60;;;8.85;;
75603;SDS011;64187;51.010;13.792;2024-01-30T05:30:08;20.00;;;10.50;;
75603;SDS011;64187;51.010;13.792;2024-01-30T05:35:07;19.67;;;10.50;;
75603;SDS011;64187;51.010;13.792;2024-01-30T05:40:06;19.00;;;9.70;;
75603;SDS011;64187;51.010;13.792;2024-01-30T05:45:06;21.50;;;10.18;;
75603;SDS011;64187;51.010;13.792;2024-01-30T05:50:06;20.33;;;11.23;;
75603;SDS011;64187;51.010;13.792;2024-01-30T05:55:06;21.33;;;11.52;;
75603;SDS011;64187;51.010;13.792;2024-01-30T06:00:05;22.88;;;11.75;;
75603;SDS011;64187;51.010;13.792;2024-01-30T06:05:04;24.17;;;11.07;;
75603;SDS011;64187;51.010;13.792;2024-01-30T06:10:03;22.80;;;10.25;;
75603;SDS011;64187;51.010;13.792;2024-01-30T06:15:03;18.80;;;10.35;;
75603;SDS011;64187;51.010;13.792;2024-01-30T06:20:02;24.92;;;11.50;;
75603;SDS011;64187;51.010;13.792;2024-01-30T06:25:02;22.35;;;11.25;;
75603;SDS011;64187;51.010;13.792;2024-01-30T06:30:01;24.25;;;11.45;;
75603;SDS011;64187;51.010;13.792;2024-01-30T06:35:01;24.77;;;11.02;;
75603;SDS011;64187;51.010;13.792;2024-01-30T06:40:01;23.30;;;10.60;;
75603;SDS011;64187;51.010;13.792;2024-01-30T06:45:02;24.42;;;10.85;;
75603;SDS011;64187;51.010;13.792;2024-01-30T06:50:01;27.85;;;12.32;;
75603;SDS011;64187;51.010;13.792;2024-01-30T06:55:01;19.48;;;11.02;;
75603;SDS011;64187;51.010;13.792;2024-01-30T07:00:00;21.40;;;10.95;;
75603;SDS011;64187;51.010;13.792;2024-01-30T07:05:03;22.70;;;10.48;;
75603;SDS011;64187;51.010;13.792;2024-01-30T07:10:02;20.42;;;10.88;;
75603;SDS011;64187;51.010;13.792;2024-01-30T07:15:02;23.90;;;9.55;;
75603;SDS011;64187;51.010;13.792;2024-01-30T07:20:01;20.83;;;10.90;;
75603;SDS011;64187;51.010;13.792;2024-01-30T07:25:05;22.58;;;11.05;;
75603;SDS011;64187;51.010;13.792;2024-01-30T07:30:04;22.55;;;10.63;;
75603;SDS011;64187;51.010;13.792;2024-01-30T07:35:04;23.17;;;11.57;;
75603;SDS011;64187;51.010;13.792;2024-01-30T07:40:06;19.08;;;9.85;;
75603;SDS011;64187;51.010;13.792;2024-01-30T07:45:06;21.17;;;9.38;;
75603;SDS011;64187;51.010;13.792;2024-01-30T07:50:05;21.75;;;10.07;;
75603;SDS011;64187;51.010;13.792;2024-01-30T07:55:05;20.23;;;10.63;;
75603;SDS011;64187;51.010;13.792;2024-01-30T08:00:06;21.75;;;10.68;;
75603;SDS011;64187;51.010;13.792;2024-01-30T08:05:06;17.27;;;10.00;;
75603;SDS011;64187;51.010;13.792;2024-01-30T08:10:06;19.45;;;9.68;;
75603;SDS011;64187;51.010;13.792;2024-01-30T08:15:05;23.20;;;10.90;;
75603;SDS011;64187;51.010;13.792;2024-01-30T08:20:04;22.13;;;9.88;;
75603;SDS011;64187;51.010;13.792;2024-01-30T08:25:04;15.95;;;8.95;;
75603;SDS011;64187;51.010;13.792;2024-01-30T08:30:05;20.80;;;10.85;;
75603;SDS011;64187;51.010;13.792;2024-01-30T08:35:05;19.20;;;8.85;;
75603;SDS011;64187;51.010;13.792;2024-01-30T08:40:05;18.48;;;10.52;;
75603;SDS011;64187;51.010;13.792;2024-01-30T08:45:07;20.15;;;9.82;;
75603;SDS011;64187;51.010;13.792;2024-01-30T08:50:08;18.88;;;9.25;;
75603;SDS011;64187;51.010;13.792;2024-01-30T08:55:07;19.00;;;9.50;;
75603;SDS011;64187;51.010;13.792;2024-01-30T09:00:06;17.33;;;9.25;;
75603;SDS011;64187;51.010;13.792;2024-01-30T09:05:07;17.55;;;9.35;;
75603;SDS011;64187;51.010;13.792;2024-01-30T09:10:06;17.30;;;9.50;;
75603;SDS011;64187;51.010;13.792;2024-01-30T09:15:09;16.88;;;9.10;;
75603;SDS011;64187;51.010;13.792;2024-01-30T09:20:08;15.25;;;8.43;;
75603;SDS011;64187;51.010;13.792;2024-01-30T09:25:08;18.23;;;9.32;;
75603;SDS011;64187;51.010;13.792;2024-01-30T09:30:07;19.75;;;10.35;;
75603;SDS011;64187;51.010;13.792;2024-01-30T09:35:06;17.20;;;9.60;;
75603;SDS011;64187;51.010;13.792;2024-01-30T09:40:06;17.92;;;8.80;;
75603;SDS011;64187;51.010;13.792;2024-01-30T09:45:06;17.60;;;8.73;;
75603;SDS011;64187;51.010;13.792;2024-01-30T09:50:05;12.18;;;7.68;;
75603;SDS011;64187;51.010;13.792;2024-01-30T09:55:05;16.75;;;8.48;;
75603;SDS011;64187;51.010;13.792;2024-01-30T10:00:05;15.20;;;8.85;;
75603;SDS011;64187;51.010;13.792;2024-01-30T10:05:11;15.57;;;8.38;;
75603;SDS011;64187;51.010;13.792;2024-01-30T10:10:17;14.63;;;8.13;;
75603;SDS011;64187;51.010;13.792;2024-01-30T10:15:17;15.93;;;7.53;;
75603;SDS011;64187;51.010;13.792;2024-01-30T10:20:16;17.60;;;8.52;;
75603;SDS011;64187;51.010;13.792;2024-01-30T10:25:17;12.45;;;7.25;;
75603;SDS011;64187;51.010;13.792;2024-01-30T10:30:16;14.45;;;8.73;;
75603;SDS011;64187;51.010;13.792;2024-01-30T10:35:15;15.75;;;7.68;;
75603;SDS011;64187;51.010;13.792;2024-01-30T10:40:14;17.55;;;7.65;;
75603;SDS011;64187;51.010;13.792;2024-01-30T10:45:14;17.13;;;8.13;;
75603;SDS011;64187;51.010;13.792;2024-01-30T10:50:17;17.63;;;8.35;;
75603;SDS011;64187;51.010;13.792;2024-01-30T10:55:17;18.40;;;8.50;;
75603;SDS011;64187;51.010;13.792;2024-01-30T11:00:17;18.80;;;9.38;;
75603;SDS011;64187;51.010;13.792;2024-01-30T11:05:24;16.08;;;8.13;;
75603;SDS011;64187;51.010;13.792;2024-01-30T11:10:30;17.08;;;8.90;;
75603;SDS011;64187;51.010;13.792;2024-01-30T11:15:30;16.15;;;8.48;;
75603;SDS011;64187;51.010;13.792;2024-01-30T11:20:30;15.20;;;8.38;;
75603;SDS011;64187;51.010;13.792;2024-01-30T11:25:30;14.48;;;8.25;;
75603;SDS011;64187;51.010;13.792;2024-01-30T11:30:31;19.63;;;8.05;;
75603;SDS011;64187;51.010;13.792;2024-01-30T11:35:34;15.27;;;8.73;;
75603;SDS011;64187;51.010;13.792;2024-01-30T11:40:35;19.27;;;9.93;;
75603;SDS011;64187;51.010;13.792;2024-01-30T11:45:36;19.75;;;8.50;;
75603;SDS011;64187;51.010;13.792;2024-01-30T11:50:35;17.58;;;9.10;;
75603;SDS011;64187;51.010;13.792;2024-01-30T11:55:37;15.57;;;8.27;;
75603;SDS011;64187;51.010;13.792;2024-01-30T12:00:36;20.58;;;11.23;;
75603;SDS011;64187;51.010;13.792;2024-01-30T12:05:35;17.10;;;9.52;;
75603;SDS011;64187;51.010;13.792;2024-01-30T12:10:35;20.08;;;10.85;;
75603;SDS011;64187;51.010;13.792;2024-01-30T12:15:34;19.40;;;9.70;;
75603;SDS011;64187;51.010;13.792;2024-01-30T12:20:33;23.02;;;10.10;;
75603;SDS011;64187;51.010;13.792;2024-01-30T12:25:32;17.98;;;9.40;;
75603;SDS011;64187;51.010;13.792;2024-01-30T12:30:31;17.10;;;9.70;;
75603;SDS011;64187;51.010;13.792;2024-01-30T12:35:30;16.10;;;8.65;;
75603;SDS011;64187;51.010;13.792;2024-01-30T12:40:33;20.02;;;10.35;;
75603;SDS011;64187;51.010;13.792;2024-01-30T12:45:32;20.48;;;10.30;;
75603;SDS011;64187;51.010;13.792;2024-01-30T12:50:31;18.48;;;10.43;;
75603;SDS011;64187;51.010;13.792;2024-01-30T12:55:30;18.13;;;9.05;;
75603;SDS011;64187;51.010;13.792;2024-01-30T13:00:29;18.25;;;10.27;;
75603;SDS011;64187;51.010;13.792;2024-01-30T13:05:28;20.25;;;10.05;;
75603;SDS011;64187;51.010;13.792;2024-01-30T13:10:27;19.17;;;9.90;;
75603;SDS011;64187;51.010;13.792;2024-01-30T13:15:26;20.23;;;9.98;;
75603;SDS011;64187;51.010;13.792;2024-01-30T13:20:25;17.42;;;9.32;;
75603;SDS011;64187;51.010;13.792;2024-01-30T13:25:24;18.33;;;10.13;;
75603;SDS011;64187;51.010;13.792;2024-01-30T13:30:23;20.27;;;10.27;;
75603;SDS011;64187;51.010;13.792;2024-01-30T13:35:22;17.38;;;10.38;;
75603;SDS011;64187;51.010;13.792;2024-01-30T13:40:21;19.27;;;9.50;;
75603;SDS011;64187;51.010;13.792;2024-01-30T13:45:21;21.13;;;10.18;;
75603;SDS011;64187;51.010;13.792;2024-01-30T13:50:21;20.85;;;10.20;;
75603;SDS011;64187;51.010;13.792;2024-01-30T13:55:20;22.70;;;10.77;;
75603;SDS011;64187;51.010;13.792;2024-01-30T14:00:19;20.23;;;10.63;;
75603;SDS011;64187;51.010;13.792;2024-01-30T14:05:20;20.73;;;9.68;;
75603;SDS011;64187;51.010;13.792;2024-01-30T14:10:22;20.88;;;11.23;;
75603;SDS011;64187;51.010;13.792;2024-01-30T14:15:22;22.08;;;11.23;;
75603;SDS011;64187;51.010;13.792;2024-01-30T14:20:27;26.08;;;11.18;;
75603;SDS011;64187;51.010;13.792;2024-01-30T14:25:26;23.77;;;12.23;;
75603;SDS011;64187;51.010;13.792;2024-01-30T14:30:25;25.38;;;12.10;;
75603;SDS011;64187;51.010;13.792;2024-01-30T14:35:24;19.50;;;10.15;;
75603;SDS011;64187;51.010;13.792;2024-01-30T14:40:23;24.27;;;11.55;;
75603;SDS011;64187;51.010;13.792;2024-01-30T14:45:22;23.08;;;10.93;;
75603;SDS011;64187;51.010;13.792;2024-01-30T14:50:21;31.55;;;11.98;;
75603;SDS011;64187;51.010;13.792;2024-01-30T14:55:20;22.00;;;10.77;;
75603;SDS011;64187;51.010;13.792;2024-01-30T15:00:19;26.02;;;11.68;;
75603;SDS011;64187;51.010;13.792;2024-01-30T15:05:17;26.30;;;12.05;;
75603;SDS011;64187;51.010;13.792;2024-01-30T15:10:16;26.80;;;11.57;;
75603;SDS011;64187;51.010;13.792;2024-01-30T15:15:15;27.23;;;12.32;;
75603;SDS011;64187;51.010;13.792;2024-01-30T15:20:14;26.13;;;10.82;;
75603;SDS011;64187;51.010;13.792;2024-01-30T15:25:15;23.85;;;10.70;;
75603;SDS011;64187;51.010;13.792;2024-01-30T15:30:14;20.35;;;9.60;;
75603;SDS011;64187;51.010;13.792;2024-01-30T15:35:13;29.15;;;13.05;;
75603;SDS011;64187;51.010;13.792;2024-01-30T15:40:12;23.75;;;11.48;;
75603;SDS011;64187;51.010;13.792;2024-01-30T15:45:11;27.77;;;12.82;;
75603;SDS011;64187;51.010;13.792;2024-01-30T15:50:10;22.77;;;11.25;;
75603;SDS011;64187;51.010;13.792;2024-01-30T15:55:10;31.38;;;11.60;;
75603;SDS011;64187;51.010;13.792;2024-01-30T16:00:11;17.40;;;8.38;;
75603;SDS011;64187;51.010;13.792;2024-01-30T16:05:11;25.70;;;11.35;;
75603;SDS011;64187;51.010;13.792;2024-01-30T16:10:11;29.25;;;13.13;;
75603;SDS011;64187;51.010;13.792;2024-01-30T16:15:15;28.25;;;11.70;;
75603;SDS011;64187;51.010;13.792;2024-01-30T16:20:14;23.75;;;11.93;;
75603;SDS011;64187;51.010;13.792;2024-01-30T16:25:14;26.38;;;11.82;;
75603;SDS011;64187;51.010;13.792;2024-01-30T16:30:16;25.95;;;12.13;;
75603;SDS011;64187;51.010;13.792;2024-01-30T16:35:16;24.85;;;11.95;;
75603;SDS011;64187;51.010;13.792;2024-01-30T16:40:15;26.95;;;13.45;;
75603;SDS011;64187;51.010;13.792;2024-01-30T16:45:14;29.05;;;12.38;;
75603;SDS011;64187;51.010;13.792;2024-01-30T16:50:13;29.52;;;13.65;;
75603;SDS011;64187;51.010;13.792;2024-01-30T16:55:12;28.52;;;13.13;;
75603;SDS011;64187;51.010;13.792;2024-01-30T17:00:12;27.13;;;11.82;;
75603;SDS011;64187;51.010;13.792;2024-01-30T17:05:11;29.15;;;13.98;;
75603;SDS011;64187;51.010;13.792;2024-01-30T17:10:24;28.48;;;12.40;;
75603;SDS011;64187;51.010;13.792;2024-01-30T17:15:23;31.02;;;12.85;;
75603;SDS011;64187;51.010;13.792;2024-01-30T17:20:22;32.03;;;13.23;;
75603;SDS011;64187;51.010;13.792;2024-01-30T17:25:22;31.30;;;14.00;;
75603;SDS011;64187;51.010;13.792;2024-01-30T17:30:21;33.42;;;13.80;;
75603;SDS011;64187;51.010;13.792;2024-01-30T17:35:20;33.05;;;13.70;;
75603;SDS011;64187;51.010;13.792;2024-01-30T17:40:19;28.80;;;13.57;;
75603;SDS011;64187;51.010;13.792;2024-01-30T17:45:18;35.40;;;13.95;;
75603;SDS011;64187;51.010;13.792;2024-01-30T17:50:19;29.85;;;14.40;;
75603;SDS011;64187;51.010;13.792;2024-01-30T17:55:18;27.75;;;12.77;;
75603;SDS011;64187;51.010;13.792;2024-01-30T18:00:17;31.60;;;13.48;;
75603;SDS011;64187;51.010;13.792;2024-01-30T18:05:17;26.98;;;12.95;;
75603;SDS011;64187;51.010;13.792;2024-01-30T18:10:16;28.63;;;13.55;;
75603;SDS011;64187;51.010;13.792;2024-01-30T18:15:18;34.92;;;14.77;;
75603;SDS011;64187;51.010;13.792;2024-01-30T18:20:17;34.78;;;13.93;;
75603;SDS011;64187;51.010;13.792;2024-01-30T18:25:16;33.50;;;13.30;;
75603;SDS011;64187;51.010;13.792;2024-01-30T18:30:15;28.00;;;12.32;;
75603;SDS011;64187;51.010;13.792;2024-01-30T18:35:14;27.90;;;12.95;;
75603;SDS011;64187;51.010;13.792;2024-01-30T18:40:14;28.65;;;13.18;;
75603;SDS011;64187;51.010;13.792;2024-01-30T18:45:17;30.35;;;14.45;;
75603;SDS011;64187;51.010;13.792;2024-01-30T18:50:18;34.83;;;13.60;;
75603;SDS011;64187;51.010;13.792;2024-01-30T18:55:18;30.67;;;14.10;;
75603;SDS011;64187;51.010;13.792;2024-01-30T19:00:17;29.08;;;13.60;;
75603;SDS011;64187;51.010;13.792;2024-01-30T19:05:17;30.15;;;13.35;;
75603;SDS011;64187;51.010;13.792;2024-01-30T19:10:17;35.05;;;15.48;;
75603;SDS011;64187;51.010;13.792;2024-01-30T19:15:32;27.20;;;11.52;;
75603;SDS011;64187;51.010;13.792;2024-01-30T19:20:31;30.23;;;13.45;;
75603;SDS011;64187;51.010;13.792;2024-01-30T19:25:31;36.45;;;15.90;;
75603;SDS011;64187;51.010;13.792;2024-01-30T19:30:32;35.50;;;15.68;;
75603;SDS011;64187;51.010;13.792;2024-01-30T19:35:31;36.53;;;15.80;;
75603;SDS011;64187;51.010;13.792;2024-01-30T19:40:30;23.80;;;11.93;;
75603;SDS011;64187;51.010;13.792;2024-01-30T19:45:29;21.15;;;10.73;;
75603;SDS011;64187;51.010;13.792;2024-01-30T19:50:28;29.95;;;12.05;;
75603;SDS011;64187;51.010;13.792;2024-01-30T19:55:27;21.83;;;9.88;;
75603;SDS011;64187;51.010;13.792;2024-01-30T20:00:26;27.40;;;13.73;;
75603;SDS011;64187;51.010;13.792;2024-01-30T20:05:25;33.90;;;15.13;;
75603;SDS011;64187;51.010;13.792;2024-01-30T20:10:24;33.03;;;15.57;;
75603;SDS011;64187;51.010;13.792;2024-01-30T20:15:24;32.47;;;15.27;;
75603;SDS011;64187;51.010;13.792;2024-01-30T20:20:24;36.55;;;15.70;;
75603;SDS011;64187;51.010;13.792;2024-01-30T20:25:23;34.72;;;14.98;;
75603;SDS011;64187;51.010;13.792;2024-01-30T20:30:21;38.78;;;15.85;;
75603;SDS011;64187;51.010;13.792;2024-01-30T20:35:21;36.30;;;15.60;;
75603;SDS011;64187;51.010;13.792;2024-01-30T20:40:20;34.80;;;15.27;;
75603;SDS011;64187;51.010;13.792;2024-01-30T20:45:19;37.90;;;14.52;;
75603;SDS011;64187;51.010;13.792;2024-01-30T20:50:18;33.90;;;15.45;;
75603;SDS011;64187;51.010;13.792;2024-01-30T20:55:17;36.47;;;14.93;;
75603;SDS011;64187;51.010;13.792;2024-01-30T21:00:16;40.55;;;16.70;;
75603;SDS011;64187;51.010;13.792;2024-01-30T21:05:15;38.50;;;16.10;;
75603;SDS011;64187;51.010;13.792;2024-01-30T21:10:21;37.78;;;15.30;;
75603;SDS011;64187;51.010;13.792;2024-01-30T21:15:20;35.40;;;14.65;;
75603;SDS011;64187;51.010;13.792;2024-01-30T21:20:18;36.17;;;15.95;;
75603;SDS011;64187;51.010;13.792;2024-01-30T21:25:17;35.28;;;14.80;;
75603;SDS011;64187;51.010;13.792;2024-01-30T21:30:16;36.08;;;16.02;;
75603;SDS011;64187;51.010;13.792;2024-01-30T21:35:15;36.67;;;15.48;;
75603;SDS011;64187;51.010;13.792;2024-01-30T21:40:14;37.33;;;13.93;;
75603;SDS011;64187;51.010;13.792;2024-01-30T21:45:16;32.95;;;14.43;;
75603;SDS011;64187;51.010;13.792;2024-01-30T21:50:18;40.33;;;14.98;;
75603;SDS011;64187;51.010;13.792;2024-01-30T21:55:18;40.30;;;15.90;;
75603;SDS011;64187;51.010;13.792;2024-01-30T22:00:17;38.40;;;16.13;;
75603;SDS011;64187;51.010;13.792;2024-01-30T22:05:16;37.85;;;15.45;;
75603;SDS011;64187;51.010;13.792;2024-01-30T22:10:17;32.38;;;13.82;;
75603;SDS011;64187;51.010;13.792;2024-01-30T22:15:16;36.20;;;15.02;;
75603;SDS011;64187;51.010;13.792;2024-01-30T22:20:16;38.20;;;15.73;;
75603;SDS011;64187;51.010;13.792;2024-01-30T22:25:15;34.15;;;15.57;;
75603;SDS011;64187;51.010;13.792;2024-01-30T22:30:14;36.33;;;16.08;;
75603;SDS011;64187;51.010;13.792;2024-01-30T22:35:14;38.83;;;15.60;;
75603;SDS011;64187;51.010;13.792;2024-01-30T22:40:13;39.38;;;15.82;;
75603;SDS011;64187;51.010;13.792;2024-01-30T22:45:12;35.42;;;15.80;;
75603;SDS011;64187;51.010;13.792;2024-01-30T22:50:10;38.45;;;15.32;;
75603;SDS011;64187;51.010;13.792;2024-01-30T22:55:09;35.35;;;14.75;;
75603;SDS011;64187;51.010;13.792;2024-01-30T23:00:08;39.63;;;16.90;;
75603;SDS011;64187;51.010;13.792;2024-01-30T23:05:14;37.15;;;15.40;;
75603;SDS011;64187;51.010;13.792;2024-01-30T23:10:13;36.65;;;14.77;;
75603;SDS011;64187;51.010;13.792;2024-01-30T23:15:12;43.15;;;16.88;;
75603;SDS011;64187;51.010;13.792;2024-01-30T23:20:11;43.13;;;15.85;;
75603;SDS011;64187;51.010;13.792;2024-01-30T23:25:10;35.17;;;14.48;;
75603;SDS011;64187;51.010;13.792;2024-01-30T23:30:09;35.47;;;14.60;;
75603;SDS011;64187;51.010;13.792;2024-01-30T23:35:09;36.50;;;14.32;;
75603;SDS011;64187;51.010;13.792;2024-01-30T23:40:11;40.35;;;16.90;;
75603;SDS011;64187;51.010;13.792;2024-01-30T23:45:10;39.45;;;14.88;;
75603;SDS011;64187;51.010;13.792;2024-01-30T23:50:10;37.38;;;15.88;;
75603;SDS011;64187;51.010;13.792;2024-01-30T23:55:09;34.95;;;16.42;;
